sensor_id;sensor_type;location;lat;lon;timestamp;pressure;altitude;pressure_sealevel;temperature;humidity
22605;BME280;11469;49.024;8.246;2023-05-03T00:00:50;101323.56;;;9.39;86.61
22605;BME280;11469;49.024;8.246;2023-05-03T00:03:15;101325.53;;;9.30;87.04
22605;BME280;11469;49.024;8.246;2023-05-03T00:05:40;101327.53;;;9.29;86.91
22605;BME280;11469;49.024;8.246;2023-05-03T00:08:06;101317.50;;;9.20;87.50
22605;BME280;11469;49.024;8.246;2023-05-03T00:10:31;101316.19;;;9.17;87.99
22605;BME280;11469;49.024;8.246;2023-05-03T00:12:57;101327.19;;;9.14;88.56
22605;BME280;11469;49.024;8.246;2023-05-03T00:15:22;101319.78;;;9.09;88.84
22605;BME280;11469;49.024;8.246;2023-05-03T00:17:48;101324.06;;;9.07;88.88
22605;BME280;11469;49.024;8.246;2023-05-03T00:20:13;101327.03;;;9.10;88.69
22605;BME280;11469;49.024;8.246;2023-05-03T00:22:39;101331.81;;;9.10;88.76
22605;BME280;11469;49.024;8.246;2023-05-03T00:25:07;101332.28;;;9.03;88.86
22605;BME280;11469;49.024;8.246;2023-05-03T00:27:33;101322.91;;;8.99;89.05
22605;BME280;11469;49.024;8.246;2023-05-03T00:29:58;101325.72;;;8.99;89.14
22605;BME280;11469;49.024;8.246;2023-05-03T00:32:23;101323.59;;;8.96;89.49
22605;BME280;11469;49.024;8.246;2023-05-03T00:34:53;101319.31;;;8.90;89.79
22605;BME280;11469;49.024;8.246;2023-05-03T00:37:19;101329.19;;;8.79;90.58
22605;BME280;11469;49.024;8.246;2023-05-03T00:39:44;101331.47;;;8.77;90.56
22605;BME280;11469;49.024;8.246;2023-05-03T00:42:10;101325.38;;;8.66;91.05
22605;BME280;11469;49.024;8.246;2023-05-03T00:44:35;101320.44;;;8.63;91.55
22605;BME280;11469;49.024;8.246;2023-05-03T00:47:00;101318.94;;;8.57;91.54
22605;BME280;11469;49.024;8.246;2023-05-03T00:49:26;101315.00;;;8.58;92.07
22605;BME280;11469;49.024;8.246;2023-05-03T00:51:52;101320.41;;;8.54;91.71
22605;BME280;11469;49.024;8.246;2023-05-03T00:54:17;101314.19;;;8.57;91.45
22605;BME280;11469;49.024;8.246;2023-05-03T00:56:44;101312.53;;;8.56;91.74
22605;BME280;11469;49.024;8.246;2023-05-03T00:59:10;101312.69;;;8.51;91.79
22605;BME280;11469;49.024;8.246;2023-05-03T01:01:36;101312.53;;;8.48;91.50
22605;BME280;11469;49.024;8.246;2023-05-03T01:04:02;101318.97;;;8.48;91.92
22605;BME280;11469;49.024;8.246;2023-05-03T01:12:46;101303.75;;;8.32;92.45
22605;BME280;11469;49.024;8.246;2023-05-03T01:15:49;101299.84;;;8.33;92.29
22605;BME280;11469;49.024;8.246;2023-05-03T01:18:21;101304.72;;;8.27;92.13
22605;BME280;11469;49.024;8.246;2023-05-03T01:20:49;101292.06;;;8.21;92.31
22605;BME280;11469;49.024;8.246;2023-05-03T01:28:44;101301.56;;;8.03;93.66
22605;BME280;11469;49.024;8.246;2023-05-03T01:31:10;101295.28;;;7.97;93.72
22605;BME280;11469;49.024;8.246;2023-05-03T01:33:45;101289.56;;;8.11;93.06
22605;BME280;11469;49.024;8.246;2023-05-03T01:36:22;101300.56;;;8.08;93.00
22605;BME280;11469;49.024;8.246;2023-05-03T01:38:50;101297.75;;;7.99;93.30
22605;BME280;11469;49.024;8.246;2023-05-03T01:41:17;101299.09;;;8.02;92.77
22605;BME280;11469;49.024;8.246;2023-05-03T01:43:44;101295.94;;;7.94;92.87
22605;BME280;11469;49.024;8.246;2023-05-03T01:46:10;101295.78;;;7.99;92.97
22605;BME280;11469;49.024;8.246;2023-05-03T01:48:36;101290.81;;;7.88;93.40
22605;BME280;11469;49.024;8.246;2023-05-03T01:51:01;101294.97;;;7.99;93.04
22605;BME280;11469;49.024;8.246;2023-05-03T01:53:26;101281.78;;;7.91;92.96
22605;BME280;11469;49.024;8.246;2023-05-03T01:55:52;101287.00;;;7.84;93.40
22605;BME280;11469;49.024;8.246;2023-05-03T01:58:17;101293.56;;;7.79;93.56
22605;BME280;11469;49.024;8.246;2023-05-03T02:00:44;101295.66;;;7.74;93.35
22605;BME280;11469;49.024;8.246;2023-05-03T02:03:10;101282.59;;;7.83;93.66
22605;BME280;11469;49.024;8.246;2023-05-03T02:05:35;101280.38;;;7.71;93.36
22605;BME280;11469;49.024;8.246;2023-05-03T02:08:01;101286.34;;;7.78;92.98
22605;BME280;11469;49.024;8.246;2023-05-03T02:10:26;101288.44;;;7.73;93.21
22605;BME280;11469;49.024;8.246;2023-05-03T02:12:52;101287.13;;;7.70;93.34
22605;BME280;11469;49.024;8.246;2023-05-03T02:15:17;101287.25;;;7.65;93.40
22605;BME280;11469;49.024;8.246;2023-05-03T02:17:44;101283.13;;;7.62;93.57
22605;BME280;11469;49.024;8.246;2023-05-03T02:20:11;101286.25;;;7.61;94.13
22605;BME280;11469;49.024;8.246;2023-05-03T02:22:37;101291.00;;;7.60;93.91
22605;BME280;11469;49.024;8.246;2023-05-03T02:25:03;101298.03;;;7.49;94.65
22605;BME280;11469;49.024;8.246;2023-05-03T02:27:29;101293.78;;;7.52;94.81
22605;BME280;11469;49.024;8.246;2023-05-03T02:29:54;101301.63;;;7.50;94.91
22605;BME280;11469;49.024;8.246;2023-05-03T02:32:20;101304.03;;;7.43;94.67
22605;BME280;11469;49.024;8.246;2023-05-03T02:34:47;101296.13;;;7.36;94.90
22605;BME280;11469;49.024;8.246;2023-05-03T02:37:13;101290.75;;;7.40;95.14
22605;BME280;11469;49.024;8.246;2023-05-03T02:39:39;101297.97;;;7.41;95.58
22605;BME280;11469;49.024;8.246;2023-05-03T02:42:04;101309.19;;;7.27;95.08
22605;BME280;11469;49.024;8.246;2023-05-03T02:44:30;101317.88;;;7.25;95.65
22605;BME280;11469;49.024;8.246;2023-05-03T02:46:55;101312.28;;;7.25;95.75
22605;BME280;11469;49.024;8.246;2023-05-03T02:49:21;101308.50;;;7.21;95.74
22605;BME280;11469;49.024;8.246;2023-05-03T02:51:47;101309.44;;;7.17;95.75
22605;BME280;11469;49.024;8.246;2023-05-03T02:54:12;101307.59;;;7.12;95.89
22605;BME280;11469;49.024;8.246;2023-05-03T02:56:38;101300.22;;;7.08;96.12
22605;BME280;11469;49.024;8.246;2023-05-03T02:59:03;101313.13;;;7.04;96.58
22605;BME280;11469;49.024;8.246;2023-05-03T03:01:28;101307.69;;;6.98;97.01
22605;BME280;11469;49.024;8.246;2023-05-03T03:03:54;101317.69;;;6.99;96.94
22605;BME280;11469;49.024;8.246;2023-05-03T03:06:20;101309.75;;;6.93;96.97
22605;BME280;11469;49.024;8.246;2023-05-03T03:08:46;101306.78;;;6.89;97.14
22605;BME280;11469;49.024;8.246;2023-05-03T03:11:11;101309.56;;;6.89;97.30
22605;BME280;11469;49.024;8.246;2023-05-03T03:13:37;101300.38;;;6.89;97.14
22605;BME280;11469;49.024;8.246;2023-05-03T03:16:08;101305.31;;;6.92;97.13
22605;BME280;11469;49.024;8.246;2023-05-03T03:18:33;101300.09;;;6.77;97.46
22605;BME280;11469;49.024;8.246;2023-05-03T03:21:02;101306.63;;;6.72;97.44
22605;BME280;11469;49.024;8.246;2023-05-03T03:23:28;101294.66;;;6.72;97.47
22605;BME280;11469;49.024;8.246;2023-05-03T03:25:53;101298.25;;;6.72;98.23
22605;BME280;11469;49.024;8.246;2023-05-03T03:28:19;101304.47;;;6.69;98.02
22605;BME280;11469;49.024;8.246;2023-05-03T03:30:44;101302.00;;;6.68;97.88
22605;BME280;11469;49.024;8.246;2023-05-03T03:33:10;101305.25;;;6.61;98.90
22605;BME280;11469;49.024;8.246;2023-05-03T03:35:36;101303.28;;;6.61;98.19
22605;BME280;11469;49.024;8.246;2023-05-03T03:38:03;101302.06;;;6.54;98.71
22605;BME280;11469;49.024;8.246;2023-05-03T03:40:29;101301.22;;;6.53;99.02
22605;BME280;11469;49.024;8.246;2023-05-03T03:42:54;101304.84;;;6.54;98.93
22605;BME280;11469;49.024;8.246;2023-05-03T03:45:19;101300.19;;;6.49;99.37
22605;BME280;11469;49.024;8.246;2023-05-03T03:47:45;101299.38;;;6.49;99.16
22605;BME280;11469;49.024;8.246;2023-05-03T03:50:10;101296.16;;;6.55;98.78
22605;BME280;11469;49.024;8.246;2023-05-03T03:52:36;101303.81;;;6.50;99.42
22605;BME280;11469;49.024;8.246;2023-05-03T03:55:01;101310.72;;;6.52;98.69
22605;BME280;11469;49.024;8.246;2023-05-03T03:57:27;101307.41;;;6.50;98.80
22605;BME280;11469;49.024;8.246;2023-05-03T03:59:55;101310.91;;;6.56;98.73
22605;BME280;11469;49.024;8.246;2023-05-03T04:02:20;101312.06;;;6.55;98.63
22605;BME280;11469;49.024;8.246;2023-05-03T04:04:46;101306.59;;;6.50;98.79
22605;BME280;11469;49.024;8.246;2023-05-03T04:07:11;101308.56;;;6.49;99.01
22605;BME280;11469;49.024;8.246;2023-05-03T04:09:37;101305.69;;;6.41;99.08
22605;BME280;11469;49.024;8.246;2023-05-03T04:12:02;101307.31;;;6.42;99.31
22605;BME280;11469;49.024;8.246;2023-05-03T04:14:28;101316.94;;;6.36;99.20
22605;BME280;11469;49.024;8.246;2023-05-03T04:16:53;101318.56;;;6.37;98.98
22605;BME280;11469;49.024;8.246;2023-05-03T04:19:19;101313.22;;;6.40;98.98
22605;BME280;11469;49.024;8.246;2023-05-03T04:21:46;101308.97;;;6.43;98.75
22605;BME280;11469;49.024;8.246;2023-05-03T04:24:14;101305.88;;;6.44;98.55
22605;BME280;11469;49.024;8.246;2023-05-03T04:26:40;101311.25;;;6.41;98.51
22605;BME280;11469;49.024;8.246;2023-05-03T04:29:05;101320.44;;;6.41;98.43
22605;BME280;11469;49.024;8.246;2023-05-03T04:31:31;101320.94;;;6.43;98.52
22605;BME280;11469;49.024;8.246;2023-05-03T04:33:56;101327.75;;;6.37;98.82
22605;BME280;11469;49.024;8.246;2023-05-03T04:36:22;101320.22;;;6.38;98.45
22605;BME280;11469;49.024;8.246;2023-05-03T04:38:50;101317.13;;;6.39;98.63
22605;BME280;11469;49.024;8.246;2023-05-03T04:41:15;101321.66;;;6.35;99.15
22605;BME280;11469;49.024;8.246;2023-05-03T04:43:41;101316.41;;;6.33;99.13
22605;BME280;11469;49.024;8.246;2023-05-03T04:46:07;101323.53;;;6.40;99.21
22605;BME280;11469;49.024;8.246;2023-05-03T04:48:33;101320.53;;;6.50;98.48
22605;BME280;11469;49.024;8.246;2023-05-03T04:51:00;101325.78;;;6.51;97.96
22605;BME280;11469;49.024;8.246;2023-05-03T04:53:26;101330.94;;;6.44;98.59
22605;BME280;11469;49.024;8.246;2023-05-03T04:55:51;101330.00;;;6.49;98.44
22605;BME280;11469;49.024;8.246;2023-05-03T04:58:17;101329.19;;;6.48;98.50
22605;BME280;11469;49.024;8.246;2023-05-03T05:00:44;101337.13;;;6.55;98.11
22605;BME280;11469;49.024;8.246;2023-05-03T05:03:09;101333.81;;;6.53;97.62
22605;BME280;11469;49.024;8.246;2023-05-03T05:05:35;101333.72;;;6.58;97.30
22605;BME280;11469;49.024;8.246;2023-05-03T05:08:00;101342.91;;;6.58;97.59
22605;BME280;11469;49.024;8.246;2023-05-03T05:10:25;101335.72;;;6.66;96.89
22605;BME280;11469;49.024;8.246;2023-05-03T05:12:51;101337.59;;;6.71;96.78
22605;BME280;11469;49.024;8.246;2023-05-03T05:15:16;101332.44;;;6.64;96.31
22605;BME280;11469;49.024;8.246;2023-05-03T05:17:42;101337.38;;;6.67;96.76
22605;BME280;11469;49.024;8.246;2023-05-03T05:20:08;101341.59;;;6.78;96.55
22605;BME280;11469;49.024;8.246;2023-05-03T05:22:37;101339.59;;;6.92;95.76
22605;BME280;11469;49.024;8.246;2023-05-03T05:25:03;101335.03;;;6.96;95.34
22605;BME280;11469;49.024;8.246;2023-05-03T05:27:28;101334.59;;;7.03;95.15
22605;BME280;11469;49.024;8.246;2023-05-03T05:29:54;101340.38;;;7.07;94.66
22605;BME280;11469;49.024;8.246;2023-05-03T05:32:19;101343.72;;;7.17;93.72
22605;BME280;11469;49.024;8.246;2023-05-03T05:34:46;101341.97;;;7.44;93.09
22605;BME280;11469;49.024;8.246;2023-05-03T05:37:17;101335.44;;;7.48;92.27
22605;BME280;11469;49.024;8.246;2023-05-03T05:39:42;101339.94;;;7.66;91.22
22605;BME280;11469;49.024;8.246;2023-05-03T05:42:08;101333.91;;;7.73;90.92
22605;BME280;11469;49.024;8.246;2023-05-03T05:44:33;101339.09;;;7.88;90.03
22605;BME280;11469;49.024;8.246;2023-05-03T05:46:58;101340.13;;;8.01;89.76
22605;BME280;11469;49.024;8.246;2023-05-03T05:49:25;101335.09;;;8.20;88.22
22605;BME280;11469;49.024;8.246;2023-05-03T05:51:50;101342.81;;;8.23;87.51
22605;BME280;11469;49.024;8.246;2023-05-03T05:54:15;101344.56;;;8.42;87.68
22605;BME280;11469;49.024;8.246;2023-05-03T05:56:41;101338.00;;;8.55;87.04
22605;BME280;11469;49.024;8.246;2023-05-03T05:59:06;101331.47;;;8.68;86.33
22605;BME280;11469;49.024;8.246;2023-05-03T06:01:31;101325.72;;;8.82;86.53
22605;BME280;11469;49.024;8.246;2023-05-03T06:03:58;101333.63;;;8.88;84.76
22605;BME280;11469;49.024;8.246;2023-05-03T06:06:23;101331.00;;;8.92;84.92
22605;BME280;11469;49.024;8.246;2023-05-03T06:08:49;101335.44;;;8.93;85.17
22605;BME280;11469;49.024;8.246;2023-05-03T06:11:15;101331.81;;;9.18;84.93
22605;BME280;11469;49.024;8.246;2023-05-03T06:13:41;101332.47;;;9.32;83.95
22605;BME280;11469;49.024;8.246;2023-05-03T06:16:08;101326.88;;;9.32;84.05
22605;BME280;11469;49.024;8.246;2023-05-03T06:18:33;101334.72;;;9.56;83.29
22605;BME280;11469;49.024;8.246;2023-05-03T06:20:58;101333.53;;;9.66;83.07
22605;BME280;11469;49.024;8.246;2023-05-03T06:23:24;101334.16;;;9.80;83.63
22605;BME280;11469;49.024;8.246;2023-05-03T06:25:51;101327.19;;;9.22;85.03
22605;BME280;11469;49.024;8.246;2023-05-03T06:28:17;101321.94;;;9.12;86.35
22605;BME280;11469;49.024;8.246;2023-05-03T06:30:47;101316.31;;;9.38;86.49
22605;BME280;11469;49.024;8.246;2023-05-03T06:33:13;101333.19;;;9.68;85.21
22605;BME280;11469;49.024;8.246;2023-05-03T06:35:41;101316.22;;;9.81;84.03
22605;BME280;11469;49.024;8.246;2023-05-03T06:38:07;101326.69;;;9.93;84.24
22605;BME280;11469;49.024;8.246;2023-05-03T06:40:33;101320.84;;;9.69;84.55
22605;BME280;11469;49.024;8.246;2023-05-03T06:42:59;101310.31;;;9.65;86.50
22605;BME280;11469;49.024;8.246;2023-05-03T06:45:24;101312.28;;;9.74;85.48
22605;BME280;11469;49.024;8.246;2023-05-03T06:47:50;101318.22;;;10.10;84.07
22605;BME280;11469;49.024;8.246;2023-05-03T06:50:16;101310.53;;;9.98;84.91
22605;BME280;11469;49.024;8.246;2023-05-03T06:52:41;101308.22;;;10.39;83.87
22605;BME280;11469;49.024;8.246;2023-05-03T06:55:07;101309.47;;;10.12;84.08
22605;BME280;11469;49.024;8.246;2023-05-03T06:57:32;101318.28;;;10.60;83.95
22605;BME280;11469;49.024;8.246;2023-05-03T06:59:58;101317.84;;;10.50;83.99
22605;BME280;11469;49.024;8.246;2023-05-03T07:02:23;101311.53;;;10.61;83.19
22605;BME280;11469;49.024;8.246;2023-05-03T07:04:50;101315.16;;;10.62;82.70
22605;BME280;11469;49.024;8.246;2023-05-03T07:07:15;101321.44;;;10.59;83.07
22605;BME280;11469;49.024;8.246;2023-05-03T07:09:40;101321.75;;;10.37;83.93
22605;BME280;11469;49.024;8.246;2023-05-03T07:12:06;101313.75;;;10.47;84.21
22605;BME280;11469;49.024;8.246;2023-05-03T07:14:31;101313.84;;;10.39;85.31
22605;BME280;11469;49.024;8.246;2023-05-03T07:16:57;101319.22;;;10.44;84.35
22605;BME280;11469;49.024;8.246;2023-05-03T07:19:22;101314.94;;;10.67;84.21
22605;BME280;11469;49.024;8.246;2023-05-03T07:21:47;101314.47;;;10.65;83.61
22605;BME280;11469;49.024;8.246;2023-05-03T07:24:13;101304.31;;;10.81;82.93
22605;BME280;11469;49.024;8.246;2023-05-03T07:26:38;101299.78;;;10.68;84.44
22605;BME280;11469;49.024;8.246;2023-05-03T07:29:04;101300.84;;;10.96;82.98
22605;BME280;11469;49.024;8.246;2023-05-03T07:31:30;101294.63;;;10.91;82.85
22605;BME280;11469;49.024;8.246;2023-05-03T07:33:55;101301.69;;;10.97;84.25
22605;BME280;11469;49.024;8.246;2023-05-03T07:36:21;101302.78;;;11.05;83.05
22605;BME280;11469;49.024;8.246;2023-05-03T07:38:46;101299.25;;;11.28;82.31
22605;BME280;11469;49.024;8.246;2023-05-03T07:41:11;101300.09;;;11.29;82.02
22605;BME280;11469;49.024;8.246;2023-05-03T07:43:37;101300.97;;;11.21;81.84
22605;BME280;11469;49.024;8.246;2023-05-03T07:46:02;101292.72;;;11.37;82.09
22605;BME280;11469;49.024;8.246;2023-05-03T07:48:28;101286.75;;;11.38;82.20
22605;BME280;11469;49.024;8.246;2023-05-03T07:50:53;101284.56;;;11.44;81.71
22605;BME280;11469;49.024;8.246;2023-05-03T07:53:18;101292.81;;;11.61;81.30
22605;BME280;11469;49.024;8.246;2023-05-03T07:55:44;101295.50;;;11.24;82.65
22605;BME280;11469;49.024;8.246;2023-05-03T07:58:09;101287.72;;;11.42;82.44
22605;BME280;11469;49.024;8.246;2023-05-03T08:00:34;101290.22;;;11.56;83.08
22605;BME280;11469;49.024;8.246;2023-05-03T08:03:00;101278.59;;;11.78;82.34
22605;BME280;11469;49.024;8.246;2023-05-03T08:05:28;101286.19;;;11.90;81.34
22605;BME280;11469;49.024;8.246;2023-05-03T08:07:53;101298.28;;;12.15;80.93
22605;BME280;11469;49.024;8.246;2023-05-03T08:10:19;101290.44;;;12.20;80.55
22605;BME280;11469;49.024;8.246;2023-05-03T08:12:45;101290.88;;;12.35;79.42
22605;BME280;11469;49.024;8.246;2023-05-03T08:15:10;101282.56;;;12.50;79.16
22605;BME280;11469;49.024;8.246;2023-05-03T08:17:40;101288.16;;;12.62;79.70
22605;BME280;11469;49.024;8.246;2023-05-03T08:20:07;101287.59;;;12.33;79.17
22605;BME280;11469;49.024;8.246;2023-05-03T08:22:32;101291.22;;;12.57;79.17
22605;BME280;11469;49.024;8.246;2023-05-03T08:24:59;101290.88;;;12.35;79.97
22605;BME280;11469;49.024;8.246;2023-05-03T08:27:25;101293.03;;;12.25;80.31
22605;BME280;11469;49.024;8.246;2023-05-03T08:29:52;101284.66;;;12.41;79.82
22605;BME280;11469;49.024;8.246;2023-05-03T08:32:18;101294.63;;;12.51;80.49
22605;BME280;11469;49.024;8.246;2023-05-03T08:34:44;101298.47;;;12.71;79.31
22605;BME280;11469;49.024;8.246;2023-05-03T08:37:10;101295.59;;;12.83;78.92
22605;BME280;11469;49.024;8.246;2023-05-03T08:39:35;101294.53;;;12.87;77.54
22605;BME280;11469;49.024;8.246;2023-05-03T08:42:05;101301.59;;;12.81;78.88
22605;BME280;11469;49.024;8.246;2023-05-03T08:44:31;101300.53;;;12.86;78.42
22605;BME280;11469;49.024;8.246;2023-05-03T08:47:00;101285.59;;;12.98;77.77
22605;BME280;11469;49.024;8.246;2023-05-03T08:49:26;101287.03;;;12.91;77.09
22605;BME280;11469;49.024;8.246;2023-05-03T08:51:53;101280.66;;;13.07;78.03
22605;BME280;11469;49.024;8.246;2023-05-03T08:54:19;101292.75;;;13.35;76.90
22605;BME280;11469;49.024;8.246;2023-05-03T08:56:45;101282.25;;;13.48;75.79
22605;BME280;11469;49.024;8.246;2023-05-03T08:59:12;101287.44;;;13.61;76.74
22605;BME280;11469;49.024;8.246;2023-05-03T09:01:38;101275.06;;;13.50;75.59
22605;BME280;11469;49.024;8.246;2023-05-03T09:04:05;101278.72;;;13.51;76.52
22605;BME280;11469;49.024;8.246;2023-05-03T09:06:30;101282.19;;;13.60;75.76
22605;BME280;11469;49.024;8.246;2023-05-03T09:08:57;101282.09;;;13.56;74.71
22605;BME280;11469;49.024;8.246;2023-05-03T09:11:31;101274.66;;;13.36;75.70
22605;BME280;11469;49.024;8.246;2023-05-03T09:14:13;101271.28;;;13.74;74.72
22605;BME280;11469;49.024;8.246;2023-05-03T09:16:40;101275.19;;;13.85;74.55
22605;BME280;11469;49.024;8.246;2023-05-03T09:19:06;101276.16;;;14.24;74.11
22605;BME280;11469;49.024;8.246;2023-05-03T09:21:44;101281.34;;;14.22;72.38
22605;BME280;11469;49.024;8.246;2023-05-03T09:24:19;101284.06;;;14.35;73.58
22605;BME280;11469;49.024;8.246;2023-05-03T09:26:46;101286.63;;;14.24;73.92
22605;BME280;11469;49.024;8.246;2023-05-03T09:29:32;101269.47;;;14.13;73.39
22605;BME280;11469;49.024;8.246;2023-05-03T09:32:03;101270.50;;;14.40;72.47
22605;BME280;11469;49.024;8.246;2023-05-03T09:34:33;101272.88;;;14.73;71.07
22605;BME280;11469;49.024;8.246;2023-05-03T09:37:00;101275.59;;;14.35;72.41
22605;BME280;11469;49.024;8.246;2023-05-03T09:39:25;101274.53;;;14.74;72.03
22605;BME280;11469;49.024;8.246;2023-05-03T09:41:50;101275.19;;;14.68;70.50
22605;BME280;11469;49.024;8.246;2023-05-03T09:44:16;101274.78;;;14.50;71.05
22605;BME280;11469;49.024;8.246;2023-05-03T09:47:03;101271.22;;;14.88;71.67
22605;BME280;11469;49.024;8.246;2023-05-03T09:49:32;101277.00;;;15.14;69.97
22605;BME280;11469;49.024;8.246;2023-05-03T09:51:59;101274.84;;;15.27;69.66
22605;BME280;11469;49.024;8.246;2023-05-03T09:54:25;101262.03;;;14.56;70.71
22605;BME280;11469;49.024;8.246;2023-05-03T09:56:51;101257.47;;;14.86;71.52
22605;BME280;11469;49.024;8.246;2023-05-03T09:59:18;101265.72;;;14.95;70.47
22605;BME280;11469;49.024;8.246;2023-05-03T10:01:45;101258.34;;;15.29;69.81
22605;BME280;11469;49.024;8.246;2023-05-03T10:04:14;101254.41;;;15.34;70.43
22605;BME280;11469;49.024;8.246;2023-05-03T10:06:40;101257.38;;;15.21;69.73
22605;BME280;11469;49.024;8.246;2023-05-03T10:11:50;101260.41;;;15.32;70.37
22605;BME280;11469;49.024;8.246;2023-05-03T10:14:16;101254.22;;;15.46;69.54
22605;BME280;11469;49.024;8.246;2023-05-03T10:16:47;101256.44;;;15.56;67.91
22605;BME280;11469;49.024;8.246;2023-05-03T10:19:18;101243.47;;;15.97;68.10
22605;BME280;11469;49.024;8.246;2023-05-03T10:22:02;101243.41;;;15.93;67.49
22605;BME280;11469;49.024;8.246;2023-05-03T10:24:28;101227.91;;;15.84;68.14
22605;BME280;11469;49.024;8.246;2023-05-03T10:26:55;101233.66;;;15.45;68.77
22605;BME280;11469;49.024;8.246;2023-05-03T10:32:02;101220.84;;;15.97;67.59
22605;BME280;11469;49.024;8.246;2023-05-03T10:34:33;101227.91;;;16.10;67.81
22605;BME280;11469;49.024;8.246;2023-05-03T10:37:07;101224.38;;;16.17;66.40
22605;BME280;11469;49.024;8.246;2023-05-03T10:39:33;101214.31;;;16.19;66.45
22605;BME280;11469;49.024;8.246;2023-05-03T10:42:07;101210.91;;;16.33;66.67
22605;BME280;11469;49.024;8.246;2023-05-03T10:44:49;101215.38;;;16.34;65.85
22605;BME280;11469;49.024;8.246;2023-05-03T10:47:16;101211.25;;;16.02;67.65
22605;BME280;11469;49.024;8.246;2023-05-03T10:49:42;101208.13;;;16.10;65.59
22605;BME280;11469;49.024;8.246;2023-05-03T10:55:16;101200.69;;;16.55;65.29
22605;BME280;11469;49.024;8.246;2023-05-03T10:57:44;101210.22;;;16.70;65.06
22605;BME280;11469;49.024;8.246;2023-05-03T11:05:27;101203.06;;;16.49;63.86
22605;BME280;11469;49.024;8.246;2023-05-03T11:08:10;101194.53;;;16.46;65.15
22605;BME280;11469;49.024;8.246;2023-05-03T11:10:35;101198.75;;;16.89;64.38
22605;BME280;11469;49.024;8.246;2023-05-03T11:13:01;101199.59;;;16.63;63.69
22605;BME280;11469;49.024;8.246;2023-05-03T11:15:26;101197.91;;;16.58;64.02
22605;BME280;11469;49.024;8.246;2023-05-03T11:17:52;101203.38;;;16.44;63.63
22605;BME280;11469;49.024;8.246;2023-05-03T11:20:17;101194.41;;;16.39;63.63
22605;BME280;11469;49.024;8.246;2023-05-03T11:22:43;101188.19;;;16.86;63.38
22605;BME280;11469;49.024;8.246;2023-05-03T11:25:09;101180.63;;;17.34;61.82
22605;BME280;11469;49.024;8.246;2023-05-03T11:27:34;101180.31;;;17.43;61.28
22605;BME280;11469;49.024;8.246;2023-05-03T11:30:00;101173.88;;;17.46;60.53
22605;BME280;11469;49.024;8.246;2023-05-03T11:32:26;101170.75;;;16.50;61.96
22605;BME280;11469;49.024;8.246;2023-05-03T11:34:52;101170.63;;;17.07;62.20
22605;BME280;11469;49.024;8.246;2023-05-03T11:37:18;101180.59;;;17.31;61.18
22605;BME280;11469;49.024;8.246;2023-05-03T11:39:43;101164.38;;;17.28;61.09
22605;BME280;11469;49.024;8.246;2023-05-03T11:42:09;101165.09;;;17.17;61.06
22605;BME280;11469;49.024;8.246;2023-05-03T11:44:34;101175.47;;;17.43;59.78
22605;BME280;11469;49.024;8.246;2023-05-03T11:47:02;101164.38;;;17.28;60.79
22605;BME280;11469;49.024;8.246;2023-05-03T11:49:27;101167.75;;;17.03;60.25
22605;BME280;11469;49.024;8.246;2023-05-03T11:51:52;101157.75;;;17.13;61.33
22605;BME280;11469;49.024;8.246;2023-05-03T11:54:18;101163.78;;;17.48;59.44
22605;BME280;11469;49.024;8.246;2023-05-03T11:56:43;101170.06;;;17.68;59.04
22605;BME280;11469;49.024;8.246;2023-05-03T11:59:09;101151.63;;;17.92;58.76
22605;BME280;11469;49.024;8.246;2023-05-03T12:01:35;101155.59;;;17.84;59.31
22605;BME280;11469;49.024;8.246;2023-05-03T12:04:02;101151.88;;;17.73;58.05
22605;BME280;11469;49.024;8.246;2023-05-03T12:06:30;101151.91;;;17.76;57.98
22605;BME280;11469;49.024;8.246;2023-05-03T12:08:57;101146.38;;;17.98;57.83
22605;BME280;11469;49.024;8.246;2023-05-03T12:11:23;101141.66;;;18.19;57.24
22605;BME280;11469;49.024;8.246;2023-05-03T12:13:59;101140.00;;;18.15;56.60
22605;BME280;11469;49.024;8.246;2023-05-03T12:16:26;101141.63;;;18.16;55.85
22605;BME280;11469;49.024;8.246;2023-05-03T12:18:53;101138.78;;;18.16;55.48
22605;BME280;11469;49.024;8.246;2023-05-03T12:21:22;101139.31;;;18.36;55.73
22605;BME280;11469;49.024;8.246;2023-05-03T12:23:49;101133.22;;;18.30;55.05
22605;BME280;11469;49.024;8.246;2023-05-03T12:26:16;101130.03;;;18.49;54.89
22605;BME280;11469;49.024;8.246;2023-05-03T12:28:43;101128.94;;;18.65;55.21
22605;BME280;11469;49.024;8.246;2023-05-03T12:31:08;101118.28;;;18.47;55.59
22605;BME280;11469;49.024;8.246;2023-05-03T12:33:34;101114.66;;;18.50;55.13
22605;BME280;11469;49.024;8.246;2023-05-03T12:36:00;101121.44;;;18.28;55.70
22605;BME280;11469;49.024;8.246;2023-05-03T12:38:26;101106.94;;;17.75;54.84
22605;BME280;11469;49.024;8.246;2023-05-03T12:40:52;101108.69;;;17.94;55.29
22605;BME280;11469;49.024;8.246;2023-05-03T12:43:17;101104.44;;;18.28;54.42
22605;BME280;11469;49.024;8.246;2023-05-03T12:45:43;101090.66;;;18.30;54.36
22605;BME280;11469;49.024;8.246;2023-05-03T12:48:09;101102.25;;;18.87;54.67
22605;BME280;11469;49.024;8.246;2023-05-03T12:50:34;101106.28;;;18.79;53.02
22605;BME280;11469;49.024;8.246;2023-05-03T12:53:00;101100.53;;;18.65;52.87
22605;BME280;11469;49.024;8.246;2023-05-03T12:55:25;101094.41;;;18.59;52.87
22605;BME280;11469;49.024;8.246;2023-05-03T12:57:51;101086.72;;;18.60;52.35
22605;BME280;11469;49.024;8.246;2023-05-03T13:00:17;101085.63;;;18.85;52.67
22605;BME280;11469;49.024;8.246;2023-05-03T13:02:44;101078.75;;;19.18;51.74
22605;BME280;11469;49.024;8.246;2023-05-03T13:05:09;101089.34;;;19.36;50.17
22605;BME280;11469;49.024;8.246;2023-05-03T13:07:38;101071.06;;;19.30;48.95
22605;BME280;11469;49.024;8.246;2023-05-03T13:10:05;101060.91;;;19.36;50.30
22605;BME280;11469;49.024;8.246;2023-05-03T13:12:31;101075.91;;;19.47;50.10
22605;BME280;11469;49.024;8.246;2023-05-03T13:14:57;101072.69;;;19.31;49.79
22605;BME280;11469;49.024;8.246;2023-05-03T13:17:23;101074.72;;;19.30;50.66